Latest Weather Observations for Broken Hill Airport

IDN60801

Issued at 10:22 am EDT Wednesday 16 January 2019 (issued every 10 minutes, with the page automatically refreshed every 10 minutes)

About weather observations | Map of weather stations | Latest weather observations for NSW | Other Formats
Station Details ID: 047048 Name: BROKEN HILL AIRPORT AWS Lat: -32.00 Lon: 141.47 Height: 281.3 m
Data from the previous 72 hours. | See also: Recent months at Broken Hill Airport
Date/Time
EDT
Temp
°C
App
Temp
°C
Dew
Point
°C
Rel
Hum
%
Delta-T
°C
Wind Press
QNH
hPa
Press
MSL
hPa
Rain since
9am
mm
Dir  Spd
km/h
Gust
km/h
Spd
kts
Gust
kts
16/10:00am 39.0 31.5 4.4 12 19.0 NW 33 52 18 28 1010.6 1009.0 0.0
16/09:53am 38.8 31.3 4.3 12 18.8 NW 33 52 18 28 1010.6 1009.0 0.0
16/09:30am 38.1 31.0 3.8 12 18.5 NW 30 43 16 23 1010.6 1009.0 0.0
16/09:00am 37.3 30.5 3.1 12 18.2 NW 28 39 15 21 1010.6 1009.0 0.0
16/08:30am 36.3 31.1 3.5 13 17.5 NW 20 30 11 16 1010.5 1008.9 0.0
16/08:00am 33.9 28.5 2.7 14 16.2 NNW 20 26 11 14 1009.9 1008.2 0.0
16/07:30am 32.1 28.5 3.1 16 15.0 NNW 11 15 6 8 1009.7 1008.0 0.0
16/07:00am 29.9 26.9 2.2 17 13.9 E 7 9 4 5 1009.3 1007.6 0.0
16/06:30am 30.0 26.5 1.5 16 14.2 NE 9 11 5 6 1008.9 1007.2 0.0
16/06:00am 32.2 28.1 2.3 15 15.3 NNE 13 15 7 8 1008.6 1006.9 0.0
16/05:30am 31.9 27.2 1.1 14 15.4 ENE 15 15 8 8 1008.4 1006.7 0.0
16/05:00am 32.6 27.5 0.6 13 15.9 E 17 19 9 10 1008.3 1006.6 0.0
16/04:30am 32.3 28.7 0.4 13 15.8 ESE 9 15 5 8 1008.3 1006.6 0.0
16/04:00am 33.2 29.3 1.1 13 16.2 ENE 11 13 6 7 1008.4 1006.7 0.0
16/03:30am 33.4 29.9 1.3 13 16.3 E 9 13 5 7 1008.7 1007.0 0.0
16/03:00am 33.7 29.1 1.5 13 16.4 SE 15 19 8 10 1009.0 1007.3 0.0
16/02:30am 32.4 28.6 1.5 14 15.6 SE 11 13 6 7 1009.2 1007.5 0.0
16/02:00am 32.7 29.1 0.7 13 16.0 S 9 11 5 6 1009.4 1007.7 0.0
16/01:30am 36.3 32.0 1.2 11 18.0 SE 13 17 7 9 1009.6 1007.9 0.0
16/01:00am 33.7 28.7 1.5 13 16.4 E 17 17 9 9 1009.7 1008.0 0.0
16/12:30am 33.9 29.7 1.6 13 16.5 ESE 13 15 7 8 1009.9 1008.2 0.0
16/12:00am 34.6 31.6 1.1 12 17.0 E 6 9 3 5 1010.1 1008.4 0.0
 
Date/Time
EDT
Temp
°C
App
Temp
°C
Dew
Point
°C
Rel
Hum
%
Delta-T
°C
Wind Press
QNH
hPa
Press
MSL
hPa
Rain since
9am
mm
Dir  Spd
km/h
Gust
km/h
Spd
kts
Gust
kts
15/11:30pm 35.7 34.0 1.9 12 17.5 CALM 0 7 0 4 1009.9 1008.2 0.0
15/11:00pm 35.7 32.7 1.9 12 17.5 SSW 7 9 4 5 1009.9 1008.2 0.0
15/10:30pm 35.4 31.2 1.7 12 17.4 S 13 19 7 10 1009.6 1007.9 0.0
15/10:00pm 35.9 34.1 0.9 11 17.9 CALM 0 0 0 0 1009.1 1007.4 0.0
15/09:30pm 38.9 36.3 3.1 11 19.2 NNW 6 7 3 4 1008.8 1007.1 0.0
15/09:00pm 40.4 37.6 2.9 10 20.3 NNW 7 9 4 5 1008.6 1006.9 0.0
15/08:30pm 41.6 38.3 2.3 9 21.1 NNW 9 13 5 7 1008.4 1006.7 0.0
15/08:00pm 42.7 38.9 1.5 8 22.1 WNW 11 15 6 8 1008.3 1006.6 0.0
15/07:30pm 42.6 38.6 3.1 9 21.6 NW 13 19 7 10 1008.2 1006.5 0.0
15/07:00pm 43.1 37.6 1.8 8 22.3 W 20 26 11 14 1008.2 1006.5 0.0
15/06:30pm 43.3 37.7 3.6 9 22.0 W 22 35 12 19 1008.3 1006.6 0.0
15/06:00pm 43.9 39.0 4.0 9 22.3 WNW 19 30 10 16 1008.3 1006.6 0.0
15/05:30pm 43.1 37.1 3.4 9 21.9 WNW 24 37 13 20 1008.4 1006.7 0.0
15/05:11pm 44.4 37.8 4.4 9 22.5 W 28 46 15 25 1008.4 1006.7 0.0
15/05:00pm 44.2 38.4 4.2 9 22.4 NW 24 41 13 22 1008.5 1006.8 0.0
15/04:30pm 43.6 36.9 3.8 9 22.1 NW 28 43 15 23 1008.7 1007.0 0.0
15/04:26pm 44.3 38.1 4.3 9 22.4 WNW 26 43 14 23 1008.6 1006.9 0.0
15/04:00pm 43.9 37.3 4.0 9 22.3 WNW 28 44 15 24 1009.0 1007.3 0.0
15/03:38pm 44.0 37.4 4.1 9 22.3 NW 28 46 15 25 1009.2 1007.5 0.0
15/03:30pm 44.5 38.0 4.5 9 22.5 NW 28 44 15 24 1009.3 1007.6 0.0
15/03:13pm 42.4 34.8 2.9 9 21.5 WNW 32 50 17 27 1009.4 1007.7 0.0
15/03:00pm 42.6 36.2 3.1 9 21.6 NW 26 43 14 23 1009.7 1008.0 0.0
15/02:33pm 43.8 37.2 4.0 9 22.2 WNW 28 46 15 25 1009.9 1008.2 0.0
15/02:30pm 43.5 36.8 3.7 9 22.0 NW 28 43 15 23 1010.1 1008.4 0.0
15/02:00pm 43.7 36.3 3.9 9 22.2 NW 32 48 17 26 1010.4 1008.8 0.0
15/01:58pm 43.5 36.4 3.7 9 22.0 NW 30 48 16 26 1010.4 1008.8 0.0
15/01:30pm 43.4 35.9 3.7 9 22.0 NNW 32 48 17 26 1010.8 1009.2 0.0
15/01:00pm 42.2 34.7 4.3 10 21.1 NW 33 54 18 29 1010.9 1009.3 0.0
15/12:51pm 41.7 33.7 3.9 10 20.8 NNW 35 54 19 29 1010.9 1009.3 0.0
15/12:30pm 42.2 34.9 4.3 10 21.1 NNW 32 46 17 25 1011.0 1009.4 0.0
15/12:00pm 41.2 33.5 3.5 10 20.6 NNW 33 48 18 26 1011.2 1009.6 0.0
15/11:53am 41.2 33.5 3.5 10 20.6 NNW 33 52 18 28 1011.3 1009.7 0.0
15/11:30am 40.8 33.3 4.6 11 20.1 NNW 33 48 18 26 1011.8 1010.1 0.0
15/11:05am 40.3 32.8 4.2 11 19.8 NNW 33 52 18 28 1011.9 1010.2 0.0
15/11:00am 40.2 32.3 4.1 11 19.8 NNW 35 50 19 27 1012.0 1010.3 0.0
15/10:30am 39.5 31.1 3.6 11 19.5 NNW 37 48 20 26 1012.0 1010.3 0.0
15/10:00am 38.2 30.2 3.8 12 18.6 NNW 35 50 19 27 1012.0 1010.3 0.0
15/09:30am 37.7 30.2 3.4 12 18.4 NNW 32 48 17 26 1012.2 1010.5 0.0
15/09:25am 37.7 31.0 3.4 12 18.4 NNW 28 46 15 25 1012.1 1010.4 0.0
15/09:00am 37.2 30.6 4.2 13 17.9 N 28 39 15 21 1012.1 1010.4 0.0
15/08:30am 36.2 30.0 4.5 14 17.1 N 26 35 14 19 1011.6 1010.0 0.0
15/08:00am 35.4 28.9 4.8 15 16.6 N 28 39 15 21 1011.3 1009.7 0.0
15/07:30am 34.7 29.1 5.2 16 16.0 N 24 35 13 19 1011.1 1009.5 0.0
15/07:00am 34.2 29.2 4.8 16 15.8 N 20 33 11 18 1010.8 1009.2 0.0
15/06:30am 34.4 29.1 5.0 16 15.9 N 22 30 12 16 1010.4 1008.8 0.0
15/06:00am 33.8 29.0 4.5 16 15.7 N 19 26 10 14 1010.1 1008.4 0.0
15/05:30am 33.4 29.4 5.0 17 15.2 NNE 15 19 8 10 1009.9 1008.2 0.0
15/05:00am 33.7 30.2 5.3 17 15.4 NNE 13 17 7 9 1009.6 1007.9 0.0
15/04:30am 34.0 29.9 4.6 16 15.7 NNE 15 19 8 10 1009.4 1007.7 0.0
15/04:00am 34.5 30.0 4.1 15 16.2 NNE 17 20 9 11 1009.3 1007.6 0.0
15/03:30am 35.2 30.2 3.7 14 16.8 NNE 19 24 10 13 1009.3 1007.6 0.0
15/03:00am 36.0 31.9 4.3 14 17.1 N 15 20 8 11 1009.4 1007.7 0.0
15/02:30am 35.5 31.3 3.9 14 16.9 NNE 15 19 8 10 1009.5 1007.8 0.0
15/02:00am 35.9 31.4 4.2 14 17.1 NNE 17 20 9 11 1009.6 1007.9 0.0
15/01:30am 35.1 30.7 4.6 15 16.4 NNE 17 22 9 12 1009.8 1008.1 0.0
15/01:00am 37.0 32.5 4.0 13 17.8 N 17 24 9 13 1009.8 1008.1 0.0
15/12:30am 37.2 32.7 4.2 13 17.9 N 17 28 9 15 1009.9 1008.2 0.0
15/12:00am 36.3 33.0 4.6 14 17.2 N 11 13 6 7 1009.9 1008.2 0.0
 
Date/Time
EDT
Temp
°C
App
Temp
°C
Dew
Point
°C
Rel
Hum
%
Delta-T
°C
Wind Press
QNH
hPa
Press
MSL
hPa
Rain since
9am
mm
Dir  Spd
km/h
Gust
km/h
Spd
kts
Gust
kts
14/11:30pm 36.5 33.2 4.7 14 17.3 N 11 15 6 8 1010.1 1008.4 0.0
14/11:00pm 37.3 34.0 4.3 13 17.9 N 11 15 6 8 1010.0 1008.3 0.0
14/10:30pm 37.8 34.5 4.7 13 18.1 N 11 15 6 8 1010.0 1008.3 0.0
14/10:00pm 39.1 34.1 4.5 12 19.0 N 20 28 11 15 1009.8 1008.1 0.0
14/09:30pm 38.6 35.6 4.1 12 18.8 N 9 17 5 9 1009.6 1007.9 0.0
14/09:00pm 39.0 35.1 3.2 11 19.3 W 13 13 7 7 1009.3 1007.6 0.0
14/08:30pm 40.8 36.4 4.6 11 20.1 W 17 28 9 15 1008.9 1007.2 0.0
14/08:00pm 41.9 37.0 4.0 10 21.0 W 19 24 10 13 1008.7 1007.0 0.0
14/07:30pm 42.5 37.5 4.5 10 21.2 W 20 32 11 17 1008.5 1006.8 0.0
14/07:00pm 43.0 37.4 3.4 9 21.8 WNW 22 30 12 16 1008.3 1006.6 0.0
14/06:30pm 43.4 37.1 3.7 9 22.0 W 26 33 14 18 1008.2 1006.5 0.0
14/06:00pm 42.7 38.0 3.1 9 21.7 WNW 17 33 9 18 1008.3 1006.6 0.0
14/05:30pm 42.9 37.3 3.3 9 21.7 W 22 30 12 16 1008.3 1006.6 0.0
14/05:00pm 42.5 37.7 4.5 10 21.2 NNW 19 33 10 18 1008.5 1006.8 0.0
14/04:30pm 43.3 37.3 3.6 9 21.9 NW 24 35 13 19 1008.9 1007.2 0.0
14/04:00pm 44.2 38.7 4.2 9 22.4 NNW 22 37 12 20 1009.0 1007.3 0.0
14/03:30pm 43.1 37.5 3.4 9 21.9 N 22 35 12 19 1009.3 1007.6 0.0
14/03:00pm 44.0 38.1 4.1 9 22.3 NNW 24 39 13 21 1009.6 1007.9 0.0
14/02:30pm 43.0 37.3 4.9 10 21.4 NNW 24 37 13 20 1010.1 1008.4 0.0
14/02:00pm 42.3 36.5 4.3 10 21.1 NNW 24 44 13 24 1010.3 1008.6 0.0
14/01:30pm 42.4 36.6 4.4 10 21.2 NNW 24 41 13 22 1010.5 1008.9 0.0
14/01:03pm 41.8 35.2 4.0 10 20.9 NNW 28 48 15 26 1010.8 1009.2 0.0
14/01:00pm 42.2 36.0 4.3 10 21.1 NW 26 37 14 20 1010.9 1009.3 0.0
14/12:30pm 41.3 35.3 3.6 10 20.7 NNW 24 41 13 22 1011.4 1009.8 0.0
14/12:00pm 39.6 35.8 3.7 11 19.5 NNE 13 22 7 12 1012.0 1010.3 0.0
14/11:30am 38.4 33.3 2.8 11 19.0 N 19 28 10 15 1012.4 1010.7 0.0
14/11:00am 37.4 33.8 3.2 12 18.2 NNE 11 28 6 15 1012.5 1010.8 0.0
14/10:30am 35.7 32.3 1.9 12 17.5 SE 9 11 5 6 1012.7 1011.0 0.0
14/10:00am 33.8 30.4 1.6 13 16.4 SSE 9 15 5 8 1012.8 1011.1 0.0
14/09:30am 31.5 27.9 2.7 16 14.7 S 11 15 6 8 1012.8 1011.1 0.0
14/09:00am 28.9 24.9 3.0 19 13.1 SSW 13 17 7 9 1013.0 1011.3 0.0
14/08:30am 27.2 23.0 3.7 22 11.9 SSW 15 19 8 10 1013.0 1011.3 0.0
14/08:00am 25.8 21.5 3.1 23 11.3 SSW 15 17 8 9 1012.9 1011.2 0.0
14/07:30am 25.0 20.8 1.8 22 11.2 S 13 15 7 8 1012.7 1011.0 0.0
14/07:00am 24.8 20.7 -0.4 19 11.7 SSW 11 13 6 7 1012.4 1010.7 0.0
14/06:30am 25.2 19.9 -0.8 18 12.0 SSW 17 20 9 11 1012.1 1010.4 0.0
14/06:00am 25.6 21.8 -0.5 18 12.1 SSW 9 13 5 7 1011.8 1010.1 0.0
14/05:30am 26.1 22.4 0.0 18 12.3 SSW 9 11 5 6 1011.5 1009.9 0.0
14/05:00am 26.4 23.0 -0.6 17 12.6 S 7 9 4 5 1011.3 1009.7 0.0
14/04:30am 27.1 23.4 0.0 17 12.8 SSW 9 11 5 6 1011.4 1009.8 0.0
14/04:00am 27.9 23.8 -0.2 16 13.4 S 11 13 6 7 1011.3 1009.7 0.0
14/03:30am 28.6 24.2 0.3 16 13.6 S 13 17 7 9 1011.2 1009.6 0.0
14/03:00am 28.6 24.2 0.3 16 13.6 S 13 15 7 8 1011.8 1010.1 0.0
14/02:30am 28.6 25.1 1.2 17 13.4 SSE 9 11 5 6 1012.1 1010.4 0.0
14/02:00am 28.6 24.7 1.2 17 13.4 SSE 11 15 6 8 1012.3 1010.6 0.0
14/01:30am 28.8 25.3 1.3 17 13.5 SSE 9 11 5 6 1012.5 1010.8 0.0
14/01:00am 28.8 24.5 1.3 17 13.5 SSE 13 15 7 8 1012.6 1010.9 0.0
14/12:30am 29.4 25.1 1.0 16 13.9 SSE 13 13 7 7 1012.8 1011.1 0.0
14/12:00am 30.1 26.3 1.5 16 14.2 SSE 11 13 6 7 1013.0 1011.3 0.0
 
Date/Time
EDT
Temp
°C
App
Temp
°C
Dew
Point
°C
Rel
Hum
%
Delta-T
°C
Wind Press
QNH
hPa
Press
MSL
hPa
Rain since
9am
mm
Dir  Spd
km/h
Gust
km/h
Spd
kts
Gust
kts
13/11:30pm 31.1 28.0 1.4 15 14.8 SE 7 9 4 5 1013.1 1011.4 0.0
13/11:00pm 31.7 27.8 1.0 14 15.3 SE 11 15 6 8 1012.9 1011.2 0.0
13/10:30pm 32.5 28.3 1.6 14 15.6 SSE 13 15 7 8 1012.9 1011.2 0.0
13/10:00pm 33.2 29.1 2.1 14 15.9 S 13 17 7 9 1012.8 1011.1 0.0
13/09:30pm 34.1 29.5 1.8 13 16.5 SSE 15 19 8 10 1012.6 1010.9 0.0
13/09:00pm 35.0 29.6 2.5 13 16.9 SSE 20 28 11 15 1012.5 1010.8 0.0
13/08:30pm 35.8 30.1 3.1 13 17.3 SSE 22 30 12 16 1012.2 1010.5 0.0
13/08:00pm 36.4 30.6 2.5 12 17.8 SSE 22 30 12 16 1011.8 1010.1 0.0
13/07:30pm 37.2 31.5 3.1 12 18.1 SSE 22 32 12 17 1011.5 1009.9 0.0
13/07:00pm 37.5 32.3 3.3 12 18.3 S 20 30 11 16 1011.5 1009.9 0.0
13/06:30pm 38.2 33.0 3.8 12 18.6 SSE 20 30 11 16 1011.5 1009.9 0.0
13/06:00pm 37.4 32.7 3.2 12 18.2 SSE 17 26 9 14 1011.8 1010.1 0.0
13/05:30pm 37.6 32.4 3.4 12 18.3 SSE 20 35 11 19 1012.0 1010.3 0.0
13/05:00pm 37.2 32.7 4.2 13 17.9 S 17 26 9 14 1012.3 1010.6 0.0
13/04:30pm 37.0 32.8 4.0 13 17.8 SE 15 24 8 13 1012.8 1011.1 0.0
13/04:00pm 36.4 33.3 3.6 13 17.5 SSE 9 22 5 12 1013.2 1011.5 0.0
13/03:30pm 36.1 32.2 3.3 13 17.4 SSE 13 24 7 13 1013.4 1011.7 0.0
13/03:00pm 35.1 30.5 3.6 14 16.7 SSE 17 26 9 14 1013.7 1012.1 0.0
13/02:30pm 34.9 30.3 3.5 14 16.6 SSE 17 30 9 16 1014.0 1012.4 0.0
13/02:00pm 34.2 29.6 3.9 15 16.0 SSE 17 30 9 16 1014.4 1012.8 0.0
13/01:30pm 33.5 28.4 3.3 15 15.8 SSE 19 28 10 15 1014.6 1013.0 0.0
13/01:00pm 32.2 27.3 4.9 18 14.5 SSE 20 28 11 15 1014.8 1013.2 0.0
13/12:30pm 31.3 25.8 4.2 18 14.2 S 22 26 12 14 1015.1 1013.5 0.0
13/12:00pm 29.6 23.8 4.3 20 13.1 S 24 30 13 16 1015.2 1013.6 0.0
13/11:30am 28.5 22.6 4.1 21 12.5 S 24 32 13 17 1015.6 1013.9 0.0
13/11:00am 28.1 22.4 5.0 23 12.0 SSE 24 32 13 17 1015.8 1014.1 0.0

Other Formats:

Comma delimited format used in spreadsheet applications
http://www.bom.gov.au/fwo/IDN60801/IDN60801.94691.axf

JavaScript Object Notation format (JSON) in row-major order
http://www.bom.gov.au/fwo/IDN60801/IDN60801.94691.json